Malé International Airport
VRMM : now visible

Airfield :











YOU CAN JOIN US ON...

 
LOGIN :

Register | Disclaimer

   EN    FR    IT 

 









Legend :    VFR   Marginal VFR   IFR   Intensive IFR   Very Intensive IFR
Visi :
Ceiling :
>= 8 km
>= 3000ft
5 to 8 km
1000 to 3000 ft
1500m to 5 km
500 to 1000 ft
800 to 1500m
200 to 500 ft
< 800m
< 200 ft
Symbols :   Thunderstorms  Fog  Heavy snow  Heavy precipitations  Wind > 20 kt







- Airport Elevation : 6 ft
- IATA code : MLE


VRMM - Malé International

CURRENT METAR :
  • 191400Z 06006KT 9000 FEW018TCU 29/25 Q1011 NOSIG

EXPIRED METARs :
  • 191300Z 06008KT 9000 FEW018TCU 30/25 Q1010 NOSIG
  • 191200Z 05008KT 9000 FEW018TCU 30/24 Q1009 NOSIG

TAF TAF VRMM
Valid from the 19 at 12:00 until the 20 at 18:00 UTC


191100Z 1912/2018 06009KT 7000 FEW019
TEMPO 1912/1918 5000 HZ FEW019CB
VRMF FIR / Asia



MET'MAP, your aeronautical weather chart ! - Copyright ORBIFLY December 2007 - Disclaimer

ORBIFLY MET'MAP TEAM :

Programming & Development : Alexandra Zaïnal
Concept & Development : Baudouin d'Aumeries
Co-Development & Prog : Marc-Olivier Méhu
Technical & hardware support : Manuel Goepfert

Contact : metmap@orbifly.com




SOURCES & CREDITS :

   NOAA       Earth
Advisory